Flight Track Log - Related Links

Times and Time Zones

All times are in EDT time to prevent confusion due to time zone crossing. See the KAP29 flight status page for this flight to view local times or setup timezone preferences in your user account.


Time Position Orientation Groundspeed Altitude Reporting Facility
EDT Latitude Longitude Course Direction KTS MPH feet Rate Location/Type
Thu 06:08:13 PM 42.3667 -71.0500 270° West 134 154 900  Level KA90
Thu 06:09:19 PM 42.3667 -71.1000 270° West 140 161 2,100 1,095 Climbing KA90
Thu 06:10:19 PM 42.3667 -71.1500 270° West 145 167 3,200 1,053 Climbing KA90
Thu 06:11:13 PM 42.4000 -71.1667 340° North 145 167 4,100 842 Climbing KA90
Thu 06:12:13 PM 42.4500 -71.1833 346° North 155 178 4,800 750 Climbing KA90
Thu 06:13:13 PM 42.4833 -71.2000 340° North 160 184 5,600 850 Climbing KA90
Thu 06:14:13 PM 42.5333 -71.2167 346° North 159 183 6,500 650 Climbing KA90
Thu 06:15:13 PM 42.5667 -71.2500 324° Northwest 161 185 6,900 368 Climbing KA90
Thu 06:16:07 PM 42.6167 -71.2667 346° North 157 181 7,200 368 Climbing KA90
Thu 06:17:07 PM 42.6500 -71.2833 340° North 157 181 7,600 347 Climbing KA90
Thu 06:18:08 PM 42.7000 -71.3000 346° North 161 185 7,900 190 Climbing KA90
Thu 06:19:13 PM 42.7500 -71.3167 346° North 170 196 8,000 50 Climbing KA90
Thu 06:20:08 PM 42.7833 -71.3500 324° Northwest 182 209 8,000  Level KA90
Thu 06:21:08 PM 42.8167 -71.4000 312° West 187 215 8,000  Level KA90
Thu 06:22:08 PM 42.8500 -71.4500 312° West 187 215 8,000  Level KA90
Thu 06:23:08 PM 42.8833 -71.5000 312° West 186 214 8,000  Level KA90
Thu 06:24:08 PM 42.9167 -71.5500 312° West 183 211 8,000  Level KA90
Thu 06:25:13 PM 42.9500 -71.6167 304° West 175 201 8,000  Level KA90
Thu 06:25:39 PM 42.9706 -71.6369 324° Northwest 178 205 8,000  Level Boston Center
Thu 06:26:39 PM 43.0022 -71.6792 316° Northwest 186 214 8,000  Level Boston Center
Thu 06:27:39 PM 43.0294 -71.7158 315° West 181 208 8,000  Level Boston Center
Thu 06:28:39 PM 43.0653 -71.7667 314° West 164 189 8,000  Level Boston Center
Thu 06:29:39 PM 43.0925 -71.8061 313° West 164 189 8,000  Level Boston Center
Thu 06:30:39 PM 43.1283 -71.8511 318° Northwest 164 189 8,000  Level Boston Center
Thu 06:31:39 PM 43.1556 -71.8908 313° West 164 189 8,000  Level Boston Center
Thu 06:32:39 PM 43.1892 -71.9389 314° West 158 182 8,000  Level Boston Center
Thu 06:33:39 PM 43.2186 -71.9786 315° West 163 188 8,000  Level Boston Center
Thu 06:34:51 PM 43.2561 -72.0325 314° West 163 188 8,000  Level Boston Center
Thu 06:35:51 PM 43.2897 -72.0806 314° West 163 188 8,000  Level Boston Center
Thu 06:36:51 PM 43.3192 -72.1233 313° West 163 188 8,000  Level Boston Center
Thu 06:38:03 PM 43.3608 -72.1831 314° West 163 188 8,000  Level Boston Center
Thu 06:39:03 PM 43.3942 -72.2286 315° West 163 188 8,000  Level Boston Center
Thu 06:40:03 PM 43.4236 -72.2714 313° West 163 188 8,000  Level Boston Center
Thu 06:41:03 PM 43.4547 -72.3172 313° West 163 188 8,000  Level Boston Center
Thu 06:42:03 PM 43.4883 -72.3656 314° West 163 188 8,000  Level Boston Center
Thu 06:43:03 PM 43.5236 -72.4114 317° Northwest 163 188 8,000  Level Boston Center
Thu 06:44:03 PM 43.5569 -72.4603 313° West 169 194 8,000  Level Boston Center
Thu 06:45:03 PM 43.5903 -72.5089 313° West 169 194 8,000  Level Boston Center
Thu 06:46:03 PM 43.6236 -72.5578 313° West 169 194 8,000  Level Boston Center
Thu 06:47:03 PM 43.6550 -72.6036 313° West 169 194 8,000  Level Boston Center
Thu 06:48:03 PM 43.6944 -72.6556 316° Northwest 169 194 8,000  Level Boston Center
Thu 06:49:03 PM 43.7256 -72.7044 311° West 169 194 8,000  Level Boston Center
Thu 06:50:03 PM 43.7586 -72.7533 313° West 179 206 8,000  Level Boston Center
Thu 06:51:03 PM 43.7919 -72.8025 313° West 179 206 8,000  Level Boston Center
Thu 06:52:03 PM 43.8208 -72.8431 315° West 179 206 8,000  Level Boston Center
Thu 06:53:03 PM 43.8542 -72.8922 313° West 174 200 8,000  Level Boston Center
Thu 06:54:03 PM 43.8853 -72.9383 313° West 169 194 8,000  Level Boston Center
Thu 06:55:03 PM 43.9183 -72.9847 315° West 169 194 8,000  Level Boston Center
Thu 06:56:15 PM 43.9514 -73.0342 313° West 169 194 8,000  Level Boston Center
Thu 06:57:15 PM 43.9928 -73.0953 313° West 169 194 8,000  Level Boston Center
Thu 06:58:15 PM 44.0258 -73.1417 315° West 169 194 8,000  Level Boston Center
Thu 06:59:15 PM 44.0461 -73.2056 294° West 169 194 8,000  Level Boston Center
Thu 07:00:15 PM 44.0731 -73.2608 304° West 179 206 8,000  Level Boston Center
Thu 07:01:15 PM 44.0997 -73.3189 303° West 179 206 8,000  Level Boston Center
Thu 07:02:15 PM 44.1264 -73.3742 304° West 179 206 8,000  Level Boston Center
Thu 07:03:15 PM 44.1528 -73.4325 302° West 179 206 8,000  Level Boston Center
Thu 07:04:15 PM 44.1794 -73.4881 304° West 179 206 8,000  Level Boston Center
Thu 07:05:15 PM 44.2081 -73.5464 304° West 179 206 8,000  Level Boston Center
Thu 07:06:15 PM 44.2347 -73.6047 303° West 184 212 8,000  Level Boston Center
Thu 07:07:15 PM 44.2611 -73.6606 303° West 184 212 8,000  Level Boston Center

Login

Don't have an account? Register now (free) for customized features, flight alerts, and more!